sensor_id;sensor_type;location;lat;lon;timestamp;temperature;humidity
3156;DHT22;1588;50.892;7.082;2022-07-29T00:00:37;18.20;99.90
3156;DHT22;1588;50.892;7.082;2022-07-29T00:05:40;18.20;99.90
3156;DHT22;1588;50.892;7.082;2022-07-29T00:10:43;18.10;99.90
3156;DHT22;1588;50.892;7.082;2022-07-29T00:15:46;18.10;99.90
3156;DHT22;1588;50.892;7.082;2022-07-29T00:20:49;18.10;99.90
3156;DHT22;1588;50.892;7.082;2022-07-29T00:25:51;18.10;99.90
3156;DHT22;1588;50.892;7.082;2022-07-29T00:30:54;18.00;99.90
3156;DHT22;1588;50.892;7.082;2022-07-29T00:35:57;18.00;99.90
3156;DHT22;1588;50.892;7.082;2022-07-29T00:40:59;18.00;99.90
3156;DHT22;1588;50.892;7.082;2022-07-29T00:46:03;17.90;99.90
3156;DHT22;1588;50.892;7.082;2022-07-29T00:51:06;17.90;99.90
3156;DHT22;1588;50.892;7.082;2022-07-29T00:56:09;17.80;99.90
3156;DHT22;1588;50.892;7.082;2022-07-29T01:01:12;17.60;99.90
3156;DHT22;1588;50.892;7.082;2022-07-29T01:06:15;17.60;99.90
3156;DHT22;1588;50.892;7.082;2022-07-29T01:11:18;17.50;99.90
3156;DHT22;1588;50.892;7.082;2022-07-29T01:16:27;17.30;99.90
3156;DHT22;1588;50.892;7.082;2022-07-29T01:21:48;17.30;99.90
3156;DHT22;1588;50.892;7.082;2022-07-29T01:26:58;17.30;99.90
3156;DHT22;1588;50.892;7.082;2022-07-29T01:32:07;17.20;99.90
3156;DHT22;1588;50.892;7.082;2022-07-29T01:37:15;17.20;99.90
3156;DHT22;1588;50.892;7.082;2022-07-29T01:42:25;17.30;99.90
3156;DHT22;1588;50.892;7.082;2022-07-29T01:47:37;17.30;99.90
3156;DHT22;1588;50.892;7.082;2022-07-29T01:52:44;17.30;99.90
3156;DHT22;1588;50.892;7.082;2022-07-29T01:57:49;17.30;99.90
3156;DHT22;1588;50.892;7.082;2022-07-29T02:02:53;17.20;99.90
3156;DHT22;1588;50.892;7.082;2022-07-29T02:07:58;17.30;99.90
3156;DHT22;1588;50.892;7.082;2022-07-29T02:13:02;17.20;99.90
3156;DHT22;1588;50.892;7.082;2022-07-29T02:18:09;17.20;99.90
3156;DHT22;1588;50.892;7.082;2022-07-29T02:23:15;17.10;99.90
3156;DHT22;1588;50.892;7.082;2022-07-29T02:28:19;16.90;99.90
3156;DHT22;1588;50.892;7.082;2022-07-29T02:33:24;16.80;99.90
3156;DHT22;1588;50.892;7.082;2022-07-29T02:38:28;16.70;99.90
3156;DHT22;1588;50.892;7.082;2022-07-29T02:43:57;16.70;99.90
3156;DHT22;1588;50.892;7.082;2022-07-29T02:49:09;16.60;99.90
3156;DHT22;1588;50.892;7.082;2022-07-29T02:54:20;16.40;99.90
3156;DHT22;1588;50.892;7.082;2022-07-29T02:59:26;16.40;99.90
3156;DHT22;1588;50.892;7.082;2022-07-29T03:04:31;16.30;99.90
3156;DHT22;1588;50.892;7.082;2022-07-29T03:09:34;16.30;99.90
3156;DHT22;1588;50.892;7.082;2022-07-29T03:14:38;16.30;99.90
3156;DHT22;1588;50.892;7.082;2022-07-29T03:19:42;16.30;99.90
3156;DHT22;1588;50.892;7.082;2022-07-29T03:24:45;16.40;99.90
3156;DHT22;1588;50.892;7.082;2022-07-29T03:29:48;16.30;99.90
3156;DHT22;1588;50.892;7.082;2022-07-29T03:34:51;16.40;99.90
3156;DHT22;1588;50.892;7.082;2022-07-29T03:39:56;16.40;99.90
3156;DHT22;1588;50.892;7.082;2022-07-29T03:45:00;16.40;99.90
3156;DHT22;1588;50.892;7.082;2022-07-29T03:50:09;16.50;99.90
3156;DHT22;1588;50.892;7.082;2022-07-29T03:55:12;16.40;99.90
3156;DHT22;1588;50.892;7.082;2022-07-29T04:00:15;16.50;99.90
3156;DHT22;1588;50.892;7.082;2022-07-29T04:05:19;16.50;99.90
3156;DHT22;1588;50.892;7.082;2022-07-29T04:10:22;16.60;99.90
3156;DHT22;1588;50.892;7.082;2022-07-29T04:15:25;16.60;99.90
3156;DHT22;1588;50.892;7.082;2022-07-29T04:20:30;16.50;99.90
3156;DHT22;1588;50.892;7.082;2022-07-29T04:25:33;16.50;99.90
3156;DHT22;1588;50.892;7.082;2022-07-29T04:30:35;16.50;99.90
3156;DHT22;1588;50.892;7.082;2022-07-29T04:35:39;16.60;99.90
3156;DHT22;1588;50.892;7.082;2022-07-29T04:40:41;16.80;99.90
3156;DHT22;1588;50.892;7.082;2022-07-29T04:45:44;17.00;99.90
3156;DHT22;1588;50.892;7.082;2022-07-29T04:50:47;17.20;99.90
3156;DHT22;1588;50.892;7.082;2022-07-29T04:55:50;17.40;99.90
3156;DHT22;1588;50.892;7.082;2022-07-29T05:00:52;17.50;99.90
3156;DHT22;1588;50.892;7.082;2022-07-29T05:05:56;17.70;99.90
3156;DHT22;1588;50.892;7.082;2022-07-29T05:10:58;17.80;99.90
3156;DHT22;1588;50.892;7.082;2022-07-29T05:16:00;18.00;99.90
3156;DHT22;1588;50.892;7.082;2022-07-29T05:21:04;18.10;99.90
3156;DHT22;1588;50.892;7.082;2022-07-29T05:26:06;18.20;99.90
3156;DHT22;1588;50.892;7.082;2022-07-29T05:31:09;18.30;99.90
3156;DHT22;1588;50.892;7.082;2022-07-29T05:36:12;18.50;99.90
3156;DHT22;1588;50.892;7.082;2022-07-29T05:41:18;18.70;99.90
3156;DHT22;1588;50.892;7.082;2022-07-29T05:46:21;18.80;99.90
3156;DHT22;1588;50.892;7.082;2022-07-29T05:51:25;19.10;99.90
3156;DHT22;1588;50.892;7.082;2022-07-29T05:56:28;19.20;99.90
3156;DHT22;1588;50.892;7.082;2022-07-29T06:01:30;19.70;99.90
3156;DHT22;1588;50.892;7.082;2022-07-29T06:06:39;20.00;99.90
3156;DHT22;1588;50.892;7.082;2022-07-29T06:11:41;20.00;99.90
3156;DHT22;1588;50.892;7.082;2022-07-29T06:16:43;20.00;99.90
3156;DHT22;1588;50.892;7.082;2022-07-29T06:21:47;20.20;99.90
3156;DHT22;1588;50.892;7.082;2022-07-29T06:26:50;20.80;99.90
3156;DHT22;1588;50.892;7.082;2022-07-29T06:31:52;21.40;99.90
3156;DHT22;1588;50.892;7.082;2022-07-29T06:36:55;21.40;99.90
3156;DHT22;1588;50.892;7.082;2022-07-29T06:41:58;21.50;99.90
3156;DHT22;1588;50.892;7.082;2022-07-29T06:47:00;21.50;99.90
3156;DHT22;1588;50.892;7.082;2022-07-29T06:52:04;21.50;99.90
3156;DHT22;1588;50.892;7.082;2022-07-29T06:57:06;21.90;99.90
3156;DHT22;1588;50.892;7.082;2022-07-29T07:02:11;22.10;99.90
3156;DHT22;1588;50.892;7.082;2022-07-29T07:07:14;21.90;99.90
3156;DHT22;1588;50.892;7.082;2022-07-29T07:12:16;21.70;99.90
3156;DHT22;1588;50.892;7.082;2022-07-29T07:17:19;21.50;99.90
3156;DHT22;1588;50.892;7.082;2022-07-29T07:22:22;21.50;99.90
3156;DHT22;1588;50.892;7.082;2022-07-29T07:27:24;21.60;99.90
3156;DHT22;1588;50.892;7.082;2022-07-29T07:32:28;22.10;99.90
3156;DHT22;1588;50.892;7.082;2022-07-29T07:37:32;22.70;99.90
3156;DHT22;1588;50.892;7.082;2022-07-29T07:42:35;22.50;99.90
3156;DHT22;1588;50.892;7.082;2022-07-29T07:47:38;22.40;99.90
3156;DHT22;1588;50.892;7.082;2022-07-29T07:52:49;22.10;99.90
3156;DHT22;1588;50.892;7.082;2022-07-29T07:57:53;22.00;99.90
3156;DHT22;1588;50.892;7.082;2022-07-29T08:02:55;21.80;99.90
3156;DHT22;1588;50.892;7.082;2022-07-29T08:07:59;21.80;99.90
3156;DHT22;1588;50.892;7.082;2022-07-29T08:13:02;21.70;99.90
3156;DHT22;1588;50.892;7.082;2022-07-29T08:18:04;21.60;99.90
3156;DHT22;1588;50.892;7.082;2022-07-29T08:23:08;21.70;99.90
3156;DHT22;1588;50.892;7.082;2022-07-29T08:28:12;21.90;99.90
3156;DHT22;1588;50.892;7.082;2022-07-29T08:33:15;22.10;99.90
3156;DHT22;1588;50.892;7.082;2022-07-29T08:38:18;22.40;99.90
3156;DHT22;1588;50.892;7.082;2022-07-29T08:43:21;22.70;99.90
3156;DHT22;1588;50.892;7.082;2022-07-29T08:48:23;22.80;99.90
3156;DHT22;1588;50.892;7.082;2022-07-29T08:53:28;22.70;99.90
3156;DHT22;1588;50.892;7.082;2022-07-29T08:58:32;22.70;99.90
3156;DHT22;1588;50.892;7.082;2022-07-29T09:03:36;22.60;99.90
3156;DHT22;1588;50.892;7.082;2022-07-29T09:08:41;22.50;99.90
3156;DHT22;1588;50.892;7.082;2022-07-29T09:13:43;22.70;99.90
3156;DHT22;1588;50.892;7.082;2022-07-29T09:18:46;23.00;99.90
3156;DHT22;1588;50.892;7.082;2022-07-29T09:24:05;23.70;99.90
3156;DHT22;1588;50.892;7.082;2022-07-29T09:29:09;25.20;99.90
3156;DHT22;1588;50.892;7.082;2022-07-29T09:34:14;26.20;99.90
3156;DHT22;1588;50.892;7.082;2022-07-29T09:39:27;26.50;99.90
3156;DHT22;1588;50.892;7.082;2022-07-29T09:44:42;27.30;99.90
3156;DHT22;1588;50.892;7.082;2022-07-29T09:49:53;27.40;99.90
3156;DHT22;1588;50.892;7.082;2022-07-29T09:55:06;28.20;99.90
3156;DHT22;1588;50.892;7.082;2022-07-29T10:00:10;28.10;99.90
3156;DHT22;1588;50.892;7.082;2022-07-29T10:05:18;28.10;99.90
3156;DHT22;1588;50.892;7.082;2022-07-29T10:10:28;27.90;99.90
3156;DHT22;1588;50.892;7.082;2022-07-29T10:15:33;27.40;99.90
3156;DHT22;1588;50.892;7.082;2022-07-29T10:20:38;28.00;99.90
3156;DHT22;1588;50.892;7.082;2022-07-29T10:25:42;27.80;99.90
3156;DHT22;1588;50.892;7.082;2022-07-29T10:30:45;27.50;99.90
3156;DHT22;1588;50.892;7.082;2022-07-29T10:36:05;27.20;99.90
3156;DHT22;1588;50.892;7.082;2022-07-29T10:41:32;26.40;99.90
3156;DHT22;1588;50.892;7.082;2022-07-29T10:46:38;25.60;99.90
3156;DHT22;1588;50.892;7.082;2022-07-29T10:52:08;25.50;99.90
3156;DHT22;1588;50.892;7.082;2022-07-29T10:57:14;25.70;99.90
3156;DHT22;1588;50.892;7.082;2022-07-29T11:02:42;25.50;99.90
3156;DHT22;1588;50.892;7.082;2022-07-29T11:08:16;26.60;99.90
3156;DHT22;1588;50.892;7.082;2022-07-29T11:13:48;26.30;99.90
3156;DHT22;1588;50.892;7.082;2022-07-29T11:19:19;26.40;99.90
3156;DHT22;1588;50.892;7.082;2022-07-29T11:24:24;27.90;99.90
3156;DHT22;1588;50.892;7.082;2022-07-29T11:29:31;28.50;99.90
3156;DHT22;1588;50.892;7.082;2022-07-29T11:34:34;28.30;99.90
3156;DHT22;1588;50.892;7.082;2022-07-29T11:39:39;28.00;99.90
3156;DHT22;1588;50.892;7.082;2022-07-29T11:44:55;28.00;99.90
3156;DHT22;1588;50.892;7.082;2022-07-29T11:49:59;27.90;99.90
3156;DHT22;1588;50.892;7.082;2022-07-29T11:55:03;28.30;99.90
3156;DHT22;1588;50.892;7.082;2022-07-29T12:00:09;28.40;99.90
3156;DHT22;1588;50.892;7.082;2022-07-29T12:05:11;28.70;99.90
3156;DHT22;1588;50.892;7.082;2022-07-29T12:10:14;29.00;99.90
3156;DHT22;1588;50.892;7.082;2022-07-29T12:15:18;28.70;99.90
3156;DHT22;1588;50.892;7.082;2022-07-29T12:20:23;29.00;99.90
3156;DHT22;1588;50.892;7.082;2022-07-29T12:25:26;28.80;99.90
3156;DHT22;1588;50.892;7.082;2022-07-29T12:30:38;28.40;99.90
3156;DHT22;1588;50.892;7.082;2022-07-29T12:35:45;27.50;99.90
3156;DHT22;1588;50.892;7.082;2022-07-29T12:40:48;27.10;99.90
3156;DHT22;1588;50.892;7.082;2022-07-29T12:45:54;26.90;99.90
3156;DHT22;1588;50.892;7.082;2022-07-29T12:50:57;26.80;99.90
3156;DHT22;1588;50.892;7.082;2022-07-29T12:56:00;26.80;99.90
3156;DHT22;1588;50.892;7.082;2022-07-29T13:01:06;27.50;99.90
3156;DHT22;1588;50.892;7.082;2022-07-29T13:06:28;27.60;99.90
3156;DHT22;1588;50.892;7.082;2022-07-29T13:11:31;27.50;99.90
3156;DHT22;1588;50.892;7.082;2022-07-29T13:16:36;27.40;99.90
3156;DHT22;1588;50.892;7.082;2022-07-29T13:21:39;27.40;99.90
3156;DHT22;1588;50.892;7.082;2022-07-29T13:26:41;27.10;99.90
3156;DHT22;1588;50.892;7.082;2022-07-29T13:31:45;27.20;99.90
3156;DHT22;1588;50.892;7.082;2022-07-29T13:36:47;27.40;99.90
3156;DHT22;1588;50.892;7.082;2022-07-29T13:47:49;27.20;99.90
3156;DHT22;1588;50.892;7.082;2022-07-29T13:58:52;27.40;99.90
3156;DHT22;1588;50.892;7.082;2022-07-29T14:03:55;27.20;99.90
3156;DHT22;1588;50.892;7.082;2022-07-29T14:08:58;27.20;99.90
3156;DHT22;1588;50.892;7.082;2022-07-29T14:14:00;27.50;99.90
3156;DHT22;1588;50.892;7.082;2022-07-29T14:19:04;27.80;99.90
3156;DHT22;1588;50.892;7.082;2022-07-29T14:24:08;28.00;99.90
3156;DHT22;1588;50.892;7.082;2022-07-29T14:29:12;28.00;99.90
3156;DHT22;1588;50.892;7.082;2022-07-29T14:34:15;28.10;99.90
3156;DHT22;1588;50.892;7.082;2022-07-29T14:39:17;28.00;99.90
3156;DHT22;1588;50.892;7.082;2022-07-29T14:44:20;28.00;99.90
3156;DHT22;1588;50.892;7.082;2022-07-29T14:49:23;27.40;99.90
3156;DHT22;1588;50.892;7.082;2022-07-29T14:54:26;27.00;99.90
3156;DHT22;1588;50.892;7.082;2022-07-29T14:59:28;27.20;99.90
3156;DHT22;1588;50.892;7.082;2022-07-29T15:04:32;27.20;99.90
3156;DHT22;1588;50.892;7.082;2022-07-29T15:09:34;27.40;99.90
3156;DHT22;1588;50.892;7.082;2022-07-29T15:14:36;27.20;99.90
3156;DHT22;1588;50.892;7.082;2022-07-29T15:19:40;26.90;99.90
3156;DHT22;1588;50.892;7.082;2022-07-29T15:24:42;26.80;99.90
3156;DHT22;1588;50.892;7.082;2022-07-29T15:29:45;27.00;99.90
3156;DHT22;1588;50.892;7.082;2022-07-29T15:34:49;27.00;99.90
3156;DHT22;1588;50.892;7.082;2022-07-29T15:39:52;27.10;99.90
3156;DHT22;1588;50.892;7.082;2022-07-29T15:44:54;26.80;99.90
3156;DHT22;1588;50.892;7.082;2022-07-29T15:49:58;26.80;99.90
3156;DHT22;1588;50.892;7.082;2022-07-29T15:55:02;27.10;99.90
3156;DHT22;1588;50.892;7.082;2022-07-29T16:00:05;27.10;99.90
3156;DHT22;1588;50.892;7.082;2022-07-29T16:05:09;27.10;99.90
3156;DHT22;1588;50.892;7.082;2022-07-29T16:10:11;27.10;99.90
3156;DHT22;1588;50.892;7.082;2022-07-29T16:15:14;27.10;99.90
3156;DHT22;1588;50.892;7.082;2022-07-29T16:20:17;26.80;99.90
3156;DHT22;1588;50.892;7.082;2022-07-29T16:25:20;26.80;99.90
3156;DHT22;1588;50.892;7.082;2022-07-29T16:30:23;26.80;99.90
3156;DHT22;1588;50.892;7.082;2022-07-29T16:35:27;26.80;99.90
3156;DHT22;1588;50.892;7.082;2022-07-29T16:40:30;26.60;99.70
3156;DHT22;1588;50.892;7.082;2022-07-29T16:45:32;26.20;99.10
3156;DHT22;1588;50.892;7.082;2022-07-29T16:50:37;25.90;99.60
3156;DHT22;1588;50.892;7.082;2022-07-29T16:55:39;25.80;99.90
3156;DHT22;1588;50.892;7.082;2022-07-29T17:00:42;25.60;99.80
3156;DHT22;1588;50.892;7.082;2022-07-29T17:05:45;25.60;99.90
3156;DHT22;1588;50.892;7.082;2022-07-29T17:10:48;25.80;99.90
3156;DHT22;1588;50.892;7.082;2022-07-29T17:15:50;25.60;99.90
3156;DHT22;1588;50.892;7.082;2022-07-29T17:20:57;25.60;99.90
3156;DHT22;1588;50.892;7.082;2022-07-29T17:26:00;25.60;99.90
3156;DHT22;1588;50.892;7.082;2022-07-29T17:31:03;25.50;99.90
3156;DHT22;1588;50.892;7.082;2022-07-29T17:36:07;25.60;99.90
3156;DHT22;1588;50.892;7.082;2022-07-29T17:41:24;25.60;99.90
3156;DHT22;1588;50.892;7.082;2022-07-29T17:46:26;25.60;99.90
3156;DHT22;1588;50.892;7.082;2022-07-29T17:51:30;25.60;99.90
3156;DHT22;1588;50.892;7.082;2022-07-29T17:56:33;25.40;99.90
3156;DHT22;1588;50.892;7.082;2022-07-29T18:01:35;25.30;99.90
3156;DHT22;1588;50.892;7.082;2022-07-29T18:06:41;25.20;99.90
3156;DHT22;1588;50.892;7.082;2022-07-29T18:11:43;25.10;99.90
3156;DHT22;1588;50.892;7.082;2022-07-29T18:16:46;24.90;99.90
3156;DHT22;1588;50.892;7.082;2022-07-29T18:21:49;24.70;99.90
3156;DHT22;1588;50.892;7.082;2022-07-29T18:26:52;24.50;99.90
3156;DHT22;1588;50.892;7.082;2022-07-29T18:31:55;24.20;99.90
3156;DHT22;1588;50.892;7.082;2022-07-29T18:37:00;24.10;99.90
3156;DHT22;1588;50.892;7.082;2022-07-29T18:42:02;24.00;99.90
3156;DHT22;1588;50.892;7.082;2022-07-29T18:47:05;23.90;99.90
3156;DHT22;1588;50.892;7.082;2022-07-29T18:52:27;23.80;99.90
3156;DHT22;1588;50.892;7.082;2022-07-29T18:57:30;23.60;99.90
3156;DHT22;1588;50.892;7.082;2022-07-29T19:02:32;23.50;99.90
3156;DHT22;1588;50.892;7.082;2022-07-29T19:07:37;23.40;99.90
3156;DHT22;1588;50.892;7.082;2022-07-29T19:12:39;23.20;99.90
3156;DHT22;1588;50.892;7.082;2022-07-29T19:17:42;23.10;99.90
3156;DHT22;1588;50.892;7.082;2022-07-29T19:22:47;22.90;99.90
3156;DHT22;1588;50.892;7.082;2022-07-29T19:27:49;22.70;99.90
3156;DHT22;1588;50.892;7.082;2022-07-29T19:32:52;22.60;99.90
3156;DHT22;1588;50.892;7.082;2022-07-29T19:37:58;22.30;99.90
3156;DHT22;1588;50.892;7.082;2022-07-29T19:43:01;22.00;99.90
3156;DHT22;1588;50.892;7.082;2022-07-29T19:48:15;21.70;99.90
3156;DHT22;1588;50.892;7.082;2022-07-29T19:53:19;21.40;99.90
3156;DHT22;1588;50.892;7.082;2022-07-29T19:58:21;21.20;99.90
3156;DHT22;1588;50.892;7.082;2022-07-29T20:03:28;20.90;99.90
3156;DHT22;1588;50.892;7.082;2022-07-29T20:08:31;20.70;99.90
3156;DHT22;1588;50.892;7.082;2022-07-29T20:13:52;20.50;99.90
3156;DHT22;1588;50.892;7.082;2022-07-29T20:18:58;20.40;99.90
3156;DHT22;1588;50.892;7.082;2022-07-29T20:24:06;20.20;99.90
3156;DHT22;1588;50.892;7.082;2022-07-29T20:29:19;20.10;99.90
3156;DHT22;1588;50.892;7.082;2022-07-29T20:34:21;19.90;99.90
3156;DHT22;1588;50.892;7.082;2022-07-29T20:39:25;19.80;99.90
3156;DHT22;1588;50.892;7.082;2022-07-29T20:44:27;19.60;99.90
3156;DHT22;1588;50.892;7.082;2022-07-29T20:49:29;19.50;99.90
3156;DHT22;1588;50.892;7.082;2022-07-29T20:54:33;19.30;99.90
3156;DHT22;1588;50.892;7.082;2022-07-29T20:59:35;19.20;99.90
3156;DHT22;1588;50.892;7.082;2022-07-29T21:04:37;19.00;99.90
3156;DHT22;1588;50.892;7.082;2022-07-29T21:09:42;18.80;99.90
3156;DHT22;1588;50.892;7.082;2022-07-29T21:14:44;18.70;99.90
3156;DHT22;1588;50.892;7.082;2022-07-29T21:19:49;18.60;99.90
3156;DHT22;1588;50.892;7.082;2022-07-29T21:24:54;18.60;99.90
3156;DHT22;1588;50.892;7.082;2022-07-29T21:29:56;18.50;99.90
3156;DHT22;1588;50.892;7.082;2022-07-29T21:34:59;18.50;99.90
3156;DHT22;1588;50.892;7.082;2022-07-29T21:40:06;18.60;99.90
3156;DHT22;1588;50.892;7.082;2022-07-29T21:45:09;18.60;99.90
3156;DHT22;1588;50.892;7.082;2022-07-29T21:50:13;18.60;99.90
3156;DHT22;1588;50.892;7.082;2022-07-29T21:55:17;18.60;99.90
3156;DHT22;1588;50.892;7.082;2022-07-29T22:00:20;18.60;99.90
3156;DHT22;1588;50.892;7.082;2022-07-29T22:05:26;18.60;99.90
3156;DHT22;1588;50.892;7.082;2022-07-29T22:10:30;18.70;99.90
3156;DHT22;1588;50.892;7.082;2022-07-29T22:15:33;18.60;99.90
3156;DHT22;1588;50.892;7.082;2022-07-29T22:20:35;18.60;99.90
3156;DHT22;1588;50.892;7.082;2022-07-29T22:25:45;18.60;99.90
3156;DHT22;1588;50.892;7.082;2022-07-29T22:30:47;18.60;99.90
3156;DHT22;1588;50.892;7.082;2022-07-29T22:35:50;18.60;99.90
3156;DHT22;1588;50.892;7.082;2022-07-29T22:40:53;18.60;99.90
3156;DHT22;1588;50.892;7.082;2022-07-29T22:45:55;18.60;99.90
3156;DHT22;1588;50.892;7.082;2022-07-29T22:50:58;18.50;99.90
3156;DHT22;1588;50.892;7.082;2022-07-29T22:56:02;18.40;99.90
3156;DHT22;1588;50.892;7.082;2022-07-29T23:01:04;18.30;99.90
3156;DHT22;1588;50.892;7.082;2022-07-29T23:06:06;18.10;99.90
3156;DHT22;1588;50.892;7.082;2022-07-29T23:11:10;18.00;99.90
3156;DHT22;1588;50.892;7.082;2022-07-29T23:16:16;17.80;99.90
3156;DHT22;1588;50.892;7.082;2022-07-29T23:21:20;17.70;99.90
3156;DHT22;1588;50.892;7.082;2022-07-29T23:26:30;17.50;99.90
3156;DHT22;1588;50.892;7.082;2022-07-29T23:31:33;17.40;99.90
3156;DHT22;1588;50.892;7.082;2022-07-29T23:36:54;17.20;99.90
3156;DHT22;1588;50.892;7.082;2022-07-29T23:41:59;17.10;99.90
3156;DHT22;1588;50.892;7.082;2022-07-29T23:47:02;17.00;99.90
3156;DHT22;1588;50.892;7.082;2022-07-29T23:52:04;16.90;99.90
3156;DHT22;1588;50.892;7.082;2022-07-29T23:57:08;16.80;99.90
